sensor_id;sensor_type;location;lat;lon;timestamp;P1;durP1;ratioP1;P2;durP2;ratioP2
9392;SDS011;4736;52.508;13.422;2023-07-30T00:01:42;7.60;;;7.20;;
9392;SDS011;4736;52.508;13.422;2023-07-30T00:04:46;7.13;;;6.83;;
9392;SDS011;4736;52.508;13.422;2023-07-30T00:07:49;7.87;;;7.27;;
9392;SDS011;4736;52.508;13.422;2023-07-30T00:10:55;7.77;;;7.17;;
9392;SDS011;4736;52.508;13.422;2023-07-30T00:13:59;6.37;;;6.00;;
9392;SDS011;4736;52.508;13.422;2023-07-30T00:17:10;7.27;;;6.77;;
9392;SDS011;4736;52.508;13.422;2023-07-30T00:20:13;7.43;;;7.00;;
9392;SDS011;4736;52.508;13.422;2023-07-30T00:23:18;7.43;;;6.93;;
9392;SDS011;4736;52.508;13.422;2023-07-30T00:26:23;6.20;;;5.90;;
9392;SDS011;4736;52.508;13.422;2023-07-30T00:29:27;6.77;;;6.47;;
9392;SDS011;4736;52.508;13.422;2023-07-30T00:32:30;6.43;;;6.10;;
9392;SDS011;4736;52.508;13.422;2023-07-30T00:35:33;5.60;;;5.40;;
9392;SDS011;4736;52.508;13.422;2023-07-30T00:38:38;5.60;;;5.40;;
9392;SDS011;4736;52.508;13.422;2023-07-30T00:41:43;5.20;;;5.10;;
9392;SDS011;4736;52.508;13.422;2023-07-30T00:44:47;6.20;;;5.80;;
9392;SDS011;4736;52.508;13.422;2023-07-30T00:47:50;5.47;;;5.30;;
9392;SDS011;4736;52.508;13.422;2023-07-30T00:50:53;5.60;;;5.10;;
9392;SDS011;4736;52.508;13.422;2023-07-30T00:53:57;5.13;;;5.03;;
9392;SDS011;4736;52.508;13.422;2023-07-30T00:57:02;5.50;;;5.30;;
9392;SDS011;4736;52.508;13.422;2023-07-30T01:00:06;5.17;;;4.90;;
9392;SDS011;4736;52.508;13.422;2023-07-30T01:03:10;4.53;;;4.43;;
9392;SDS011;4736;52.508;13.422;2023-07-30T01:06:14;4.77;;;4.40;;
9392;SDS011;4736;52.508;13.422;2023-07-30T01:09:17;5.10;;;5.00;;
9392;SDS011;4736;52.508;13.422;2023-07-30T01:12:22;4.47;;;4.27;;
9392;SDS011;4736;52.508;13.422;2023-07-30T01:15:25;4.90;;;4.40;;
9392;SDS011;4736;52.508;13.422;2023-07-30T01:18:32;3.87;;;3.87;;
9392;SDS011;4736;52.508;13.422;2023-07-30T01:21:36;4.37;;;4.27;;
9392;SDS011;4736;52.508;13.422;2023-07-30T01:24:40;4.80;;;4.60;;
9392;SDS011;4736;52.508;13.422;2023-07-30T01:27:44;4.93;;;4.73;;
9392;SDS011;4736;52.508;13.422;2023-07-30T01:30:53;4.60;;;4.50;;
9392;SDS011;4736;52.508;13.422;2023-07-30T01:33:58;4.63;;;4.43;;
9392;SDS011;4736;52.508;13.422;2023-07-30T01:37:07;5.10;;;4.90;;
9392;SDS011;4736;52.508;13.422;2023-07-30T01:40:12;4.17;;;4.03;;
9392;SDS011;4736;52.508;13.422;2023-07-30T01:43:16;4.07;;;3.97;;
9392;SDS011;4736;52.508;13.422;2023-07-30T01:46:19;3.90;;;3.90;;
9392;SDS011;4736;52.508;13.422;2023-07-30T01:49:22;4.17;;;4.07;;
9392;SDS011;4736;52.508;13.422;2023-07-30T01:52:27;4.10;;;4.00;;
9392;SDS011;4736;52.508;13.422;2023-07-30T01:55:30;5.50;;;5.30;;
9392;SDS011;4736;52.508;13.422;2023-07-30T01:58:34;4.73;;;4.60;;
9392;SDS011;4736;52.508;13.422;2023-07-30T02:01:37;4.37;;;4.27;;
9392;SDS011;4736;52.508;13.422;2023-07-30T02:04:40;4.63;;;4.43;;
9392;SDS011;4736;52.508;13.422;2023-07-30T02:07:45;4.67;;;4.57;;
9392;SDS011;4736;52.508;13.422;2023-07-30T02:10:54;4.20;;;4.10;;
9392;SDS011;4736;52.508;13.422;2023-07-30T02:13:58;4.93;;;4.73;;
9392;SDS011;4736;52.508;13.422;2023-07-30T02:17:01;4.47;;;4.37;;
9392;SDS011;4736;52.508;13.422;2023-07-30T02:20:05;4.63;;;4.53;;
9392;SDS011;4736;52.508;13.422;2023-07-30T02:23:13;4.27;;;4.17;;
9392;SDS011;4736;52.508;13.422;2023-07-30T02:26:17;4.00;;;3.90;;
9392;SDS011;4736;52.508;13.422;2023-07-30T02:29:26;4.13;;;4.03;;
9392;SDS011;4736;52.508;13.422;2023-07-30T02:32:30;4.40;;;4.30;;
9392;SDS011;4736;52.508;13.422;2023-07-30T02:35:33;4.50;;;4.40;;
9392;SDS011;4736;52.508;13.422;2023-07-30T02:38:38;4.50;;;4.40;;
9392;SDS011;4736;52.508;13.422;2023-07-30T02:41:41;4.37;;;4.27;;
9392;SDS011;4736;52.508;13.422;2023-07-30T02:44:44;4.73;;;4.63;;
9392;SDS011;4736;52.508;13.422;2023-07-30T02:47:47;4.03;;;4.00;;
9392;SDS011;4736;52.508;13.422;2023-07-30T02:50:51;4.33;;;4.23;;
9392;SDS011;4736;52.508;13.422;2023-07-30T02:53:56;4.53;;;4.33;;
9392;SDS011;4736;52.508;13.422;2023-07-30T02:57:01;4.90;;;4.70;;
9392;SDS011;4736;52.508;13.422;2023-07-30T03:00:04;4.60;;;4.50;;
9392;SDS011;4736;52.508;13.422;2023-07-30T03:03:10;4.70;;;4.60;;
9392;SDS011;4736;52.508;13.422;2023-07-30T03:06:13;4.60;;;4.50;;
9392;SDS011;4736;52.508;13.422;2023-07-30T03:09:19;6.10;;;5.90;;
9392;SDS011;4736;52.508;13.422;2023-07-30T03:12:22;4.97;;;4.87;;
9392;SDS011;4736;52.508;13.422;2023-07-30T03:15:26;5.20;;;5.00;;
9392;SDS011;4736;52.508;13.422;2023-07-30T03:18:30;5.23;;;5.03;;
9392;SDS011;4736;52.508;13.422;2023-07-30T03:21:33;4.60;;;4.50;;
9392;SDS011;4736;52.508;13.422;2023-07-30T03:24:38;4.50;;;4.40;;
9392;SDS011;4736;52.508;13.422;2023-07-30T03:27:41;6.60;;;6.20;;
9392;SDS011;4736;52.508;13.422;2023-07-30T03:30:45;5.23;;;5.13;;
9392;SDS011;4736;52.508;13.422;2023-07-30T03:33:48;4.90;;;4.60;;
9392;SDS011;4736;52.508;13.422;2023-07-30T03:36:51;4.73;;;4.63;;
9392;SDS011;4736;52.508;13.422;2023-07-30T03:39:56;5.90;;;5.60;;
9392;SDS011;4736;52.508;13.422;2023-07-30T03:42:59;5.30;;;5.20;;
9392;SDS011;4736;52.508;13.422;2023-07-30T03:46:02;5.73;;;5.53;;
9392;SDS011;4736;52.508;13.422;2023-07-30T03:49:05;7.90;;;7.50;;
9392;SDS011;4736;52.508;13.422;2023-07-30T03:52:11;7.87;;;7.27;;
9392;SDS011;4736;52.508;13.422;2023-07-30T03:55:16;6.50;;;6.20;;
9392;SDS011;4736;52.508;13.422;2023-07-30T03:58:19;6.20;;;5.90;;
9392;SDS011;4736;52.508;13.422;2023-07-30T04:01:22;6.60;;;6.30;;
9392;SDS011;4736;52.508;13.422;2023-07-30T04:04:26;7.03;;;6.53;;
9392;SDS011;4736;52.508;13.422;2023-07-30T04:07:29;7.27;;;6.97;;
9392;SDS011;4736;52.508;13.422;2023-07-30T04:10:33;8.73;;;8.23;;
9392;SDS011;4736;52.508;13.422;2023-07-30T04:13:37;8.23;;;7.73;;
9392;SDS011;4736;52.508;13.422;2023-07-30T04:16:40;7.60;;;7.17;;
9392;SDS011;4736;52.508;13.422;2023-07-30T04:19:45;8.33;;;7.73;;
9392;SDS011;4736;52.508;13.422;2023-07-30T04:22:48;7.40;;;7.10;;
9392;SDS011;4736;52.508;13.422;2023-07-30T04:25:53;8.00;;;7.57;;
9392;SDS011;4736;52.508;13.422;2023-07-30T04:28:56;8.03;;;7.60;;
9392;SDS011;4736;52.508;13.422;2023-07-30T04:31:59;8.00;;;7.63;;
9392;SDS011;4736;52.508;13.422;2023-07-30T04:35:02;7.97;;;7.57;;
9392;SDS011;4736;52.508;13.422;2023-07-30T04:38:06;8.53;;;7.90;;
9392;SDS011;4736;52.508;13.422;2023-07-30T04:41:10;9.07;;;8.53;;
9392;SDS011;4736;52.508;13.422;2023-07-30T04:44:14;7.17;;;6.87;;
9392;SDS011;4736;52.508;13.422;2023-07-30T04:47:17;6.67;;;6.43;;
9392;SDS011;4736;52.508;13.422;2023-07-30T04:50:20;7.97;;;7.43;;
9392;SDS011;4736;52.508;13.422;2023-07-30T04:53:23;7.80;;;7.50;;
9392;SDS011;4736;52.508;13.422;2023-07-30T04:56:28;8.10;;;7.63;;
9392;SDS011;4736;52.508;13.422;2023-07-30T04:59:31;8.60;;;8.13;;
9392;SDS011;4736;52.508;13.422;2023-07-30T05:02:35;7.33;;;7.03;;
9392;SDS011;4736;52.508;13.422;2023-07-30T05:05:38;7.70;;;7.20;;
9392;SDS011;4736;52.508;13.422;2023-07-30T05:08:41;7.67;;;7.33;;
9392;SDS011;4736;52.508;13.422;2023-07-30T05:11:46;7.27;;;6.97;;
9392;SDS011;4736;52.508;13.422;2023-07-30T05:14:49;6.83;;;6.53;;
9392;SDS011;4736;52.508;13.422;2023-07-30T05:17:52;7.03;;;6.83;;
9392;SDS011;4736;52.508;13.422;2023-07-30T05:20:55;7.47;;;7.07;;
9392;SDS011;4736;52.508;13.422;2023-07-30T05:23:59;7.33;;;7.03;;
9392;SDS011;4736;52.508;13.422;2023-07-30T05:27:03;7.30;;;6.90;;
9392;SDS011;4736;52.508;13.422;2023-07-30T05:30:08;6.83;;;6.40;;
9392;SDS011;4736;52.508;13.422;2023-07-30T05:33:13;6.03;;;5.80;;
9392;SDS011;4736;52.508;13.422;2023-07-30T05:36:16;5.60;;;5.30;;
9392;SDS011;4736;52.508;13.422;2023-07-30T05:39:19;5.40;;;5.20;;
9392;SDS011;4736;52.508;13.422;2023-07-30T05:42:24;4.67;;;4.57;;
9392;SDS011;4736;52.508;13.422;2023-07-30T05:45:27;4.87;;;4.70;;
9392;SDS011;4736;52.508;13.422;2023-07-30T05:48:30;4.73;;;4.63;;
9392;SDS011;4736;52.508;13.422;2023-07-30T05:51:34;4.77;;;4.67;;
9392;SDS011;4736;52.508;13.422;2023-07-30T05:54:37;4.87;;;4.63;;
9392;SDS011;4736;52.508;13.422;2023-07-30T05:57:42;4.87;;;4.77;;
9392;SDS011;4736;52.508;13.422;2023-07-30T06:00:45;4.83;;;4.63;;
9392;SDS011;4736;52.508;13.422;2023-07-30T06:03:48;4.73;;;4.47;;
9392;SDS011;4736;52.508;13.422;2023-07-30T06:06:51;4.63;;;4.53;;
9392;SDS011;4736;52.508;13.422;2023-07-30T06:09:54;4.83;;;4.73;;
9392;SDS011;4736;52.508;13.422;2023-07-30T06:12:59;4.67;;;4.47;;
9392;SDS011;4736;52.508;13.422;2023-07-30T06:16:03;4.77;;;4.47;;
9392;SDS011;4736;52.508;13.422;2023-07-30T06:19:06;4.23;;;4.03;;
9392;SDS011;4736;52.508;13.422;2023-07-30T06:22:09;4.37;;;4.10;;
9392;SDS011;4736;52.508;13.422;2023-07-30T06:25:12;4.30;;;4.20;;
9392;SDS011;4736;52.508;13.422;2023-07-30T06:28:17;4.17;;;4.07;;
9392;SDS011;4736;52.508;13.422;2023-07-30T06:31:20;4.37;;;4.27;;
9392;SDS011;4736;52.508;13.422;2023-07-30T06:34:23;3.73;;;3.63;;
9392;SDS011;4736;52.508;13.422;2023-07-30T06:37:26;3.77;;;3.73;;
9392;SDS011;4736;52.508;13.422;2023-07-30T06:40:29;4.20;;;4.10;;
9392;SDS011;4736;52.508;13.422;2023-07-30T06:43:34;3.90;;;3.80;;
9392;SDS011;4736;52.508;13.422;2023-07-30T06:46:37;4.60;;;4.27;;
9392;SDS011;4736;52.508;13.422;2023-07-30T06:49:40;3.90;;;3.80;;
9392;SDS011;4736;52.508;13.422;2023-07-30T06:52:43;3.13;;;3.13;;
9392;SDS011;4736;52.508;13.422;2023-07-30T06:55:46;4.30;;;4.00;;
9392;SDS011;4736;52.508;13.422;2023-07-30T06:58:51;3.90;;;3.70;;
9392;SDS011;4736;52.508;13.422;2023-07-30T07:01:54;4.00;;;3.90;;
9392;SDS011;4736;52.508;13.422;2023-07-30T07:04:58;4.03;;;3.83;;
9392;SDS011;4736;52.508;13.422;2023-07-30T07:08:01;3.80;;;3.70;;
9392;SDS011;4736;52.508;13.422;2023-07-30T07:11:04;4.10;;;4.00;;
9392;SDS011;4736;52.508;13.422;2023-07-30T07:14:11;3.70;;;3.60;;
9392;SDS011;4736;52.508;13.422;2023-07-30T07:17:14;3.93;;;3.83;;
9392;SDS011;4736;52.508;13.422;2023-07-30T07:20:17;4.13;;;3.93;;
9392;SDS011;4736;52.508;13.422;2023-07-30T07:23:20;4.23;;;4.00;;
9392;SDS011;4736;52.508;13.422;2023-07-30T07:26:23;4.57;;;4.47;;
9392;SDS011;4736;52.508;13.422;2023-07-30T07:29:28;4.60;;;4.40;;
9392;SDS011;4736;52.508;13.422;2023-07-30T07:32:31;4.33;;;4.23;;
9392;SDS011;4736;52.508;13.422;2023-07-30T07:35:39;4.13;;;4.03;;
9392;SDS011;4736;52.508;13.422;2023-07-30T07:38:42;5.20;;;4.90;;
9392;SDS011;4736;52.508;13.422;2023-07-30T07:41:46;4.07;;;3.97;;
9392;SDS011;4736;52.508;13.422;2023-07-30T07:44:50;4.40;;;4.10;;
9392;SDS011;4736;52.508;13.422;2023-07-30T07:47:53;4.73;;;4.63;;
9392;SDS011;4736;52.508;13.422;2023-07-30T07:50:56;4.40;;;4.13;;
9392;SDS011;4736;52.508;13.422;2023-07-30T07:53:59;4.83;;;4.47;;
9392;SDS011;4736;52.508;13.422;2023-07-30T07:57:03;4.57;;;4.37;;
9392;SDS011;4736;52.508;13.422;2023-07-30T08:00:08;4.47;;;4.27;;
9392;SDS011;4736;52.508;13.422;2023-07-30T08:03:12;4.33;;;4.23;;
9392;SDS011;4736;52.508;13.422;2023-07-30T08:06:15;4.70;;;4.50;;
9392;SDS011;4736;52.508;13.422;2023-07-30T08:09:18;4.63;;;4.40;;
9392;SDS011;4736;52.508;13.422;2023-07-30T08:12:21;4.03;;;3.93;;
9392;SDS011;4736;52.508;13.422;2023-07-30T08:15:26;4.70;;;4.50;;
9392;SDS011;4736;52.508;13.422;2023-07-30T08:18:29;5.00;;;4.90;;
9392;SDS011;4736;52.508;13.422;2023-07-30T08:21:32;4.83;;;4.53;;
9392;SDS011;4736;52.508;13.422;2023-07-30T08:24:36;4.50;;;4.30;;
9392;SDS011;4736;52.508;13.422;2023-07-30T08:27:39;4.57;;;4.17;;
9392;SDS011;4736;52.508;13.422;2023-07-30T08:30:44;4.47;;;4.23;;
9392;SDS011;4736;52.508;13.422;2023-07-30T08:33:47;4.77;;;4.63;;
9392;SDS011;4736;52.508;13.422;2023-07-30T08:36:50;4.50;;;4.20;;
9392;SDS011;4736;52.508;13.422;2023-07-30T08:39:53;5.10;;;4.80;;
9392;SDS011;4736;52.508;13.422;2023-07-30T08:42:56;4.43;;;4.17;;
9392;SDS011;4736;52.508;13.422;2023-07-30T08:46:02;4.17;;;3.97;;
9392;SDS011;4736;52.508;13.422;2023-07-30T08:49:05;4.23;;;4.13;;
9392;SDS011;4736;52.508;13.422;2023-07-30T08:52:09;3.90;;;3.80;;
9392;SDS011;4736;52.508;13.422;2023-07-30T08:55:13;3.80;;;3.63;;
9392;SDS011;4736;52.508;13.422;2023-07-30T08:58:16;4.07;;;3.93;;
9392;SDS011;4736;52.508;13.422;2023-07-30T09:01:21;3.83;;;3.73;;
9392;SDS011;4736;52.508;13.422;2023-07-30T09:04:26;4.40;;;4.20;;
9392;SDS011;4736;52.508;13.422;2023-07-30T09:07:32;4.00;;;3.80;;
9392;SDS011;4736;52.508;13.422;2023-07-30T09:10:35;3.53;;;3.43;;
9392;SDS011;4736;52.508;13.422;2023-07-30T09:13:39;3.80;;;3.70;;
9392;SDS011;4736;52.508;13.422;2023-07-30T09:16:44;4.07;;;3.87;;
9392;SDS011;4736;52.508;13.422;2023-07-30T09:19:47;3.43;;;3.33;;
9392;SDS011;4736;52.508;13.422;2023-07-30T09:22:52;4.13;;;3.80;;
9392;SDS011;4736;52.508;13.422;2023-07-30T09:25:56;3.57;;;3.27;;
9392;SDS011;4736;52.508;13.422;2023-07-30T09:29:00;4.03;;;3.70;;
9392;SDS011;4736;52.508;13.422;2023-07-30T09:32:05;5.00;;;3.70;;
9392;SDS011;4736;52.508;13.422;2023-07-30T09:35:10;3.90;;;3.80;;
9392;SDS011;4736;52.508;13.422;2023-07-30T09:38:14;3.50;;;3.30;;
9392;SDS011;4736;52.508;13.422;2023-07-30T09:41:17;3.50;;;3.40;;
9392;SDS011;4736;52.508;13.422;2023-07-30T09:44:20;3.90;;;3.70;;
9392;SDS011;4736;52.508;13.422;2023-07-30T09:47:26;3.70;;;3.47;;
9392;SDS011;4736;52.508;13.422;2023-07-30T09:50:32;3.90;;;3.60;;
9392;SDS011;4736;52.508;13.422;2023-07-30T09:53:36;3.40;;;3.30;;
9392;SDS011;4736;52.508;13.422;2023-07-30T09:56:40;3.50;;;3.40;;
9392;SDS011;4736;52.508;13.422;2023-07-30T09:59:44;3.53;;;3.33;;
9392;SDS011;4736;52.508;13.422;2023-07-30T10:02:49;5.10;;;3.37;;
9392;SDS011;4736;52.508;13.422;2023-07-30T10:05:52;3.63;;;3.43;;
9392;SDS011;4736;52.508;13.422;2023-07-30T10:08:59;3.63;;;3.53;;
9392;SDS011;4736;52.508;13.422;2023-07-30T10:12:04;4.20;;;3.87;;
9392;SDS011;4736;52.508;13.422;2023-07-30T10:15:09;3.20;;;3.10;;
9392;SDS011;4736;52.508;13.422;2023-07-30T10:18:14;3.40;;;3.23;;
9392;SDS011;4736;52.508;13.422;2023-07-30T10:21:21;3.77;;;3.57;;
9392;SDS011;4736;52.508;13.422;2023-07-30T10:24:25;4.17;;;3.73;;
9392;SDS011;4736;52.508;13.422;2023-07-30T10:27:35;3.70;;;3.50;;
9392;SDS011;4736;52.508;13.422;2023-07-30T10:30:40;3.30;;;3.20;;
9392;SDS011;4736;52.508;13.422;2023-07-30T10:33:45;3.80;;;3.60;;
9392;SDS011;4736;52.508;13.422;2023-07-30T10:36:50;3.70;;;3.53;;
9392;SDS011;4736;52.508;13.422;2023-07-30T10:39:54;4.37;;;3.90;;
9392;SDS011;4736;52.508;13.422;2023-07-30T10:43:00;3.80;;;3.60;;
9392;SDS011;4736;52.508;13.422;2023-07-30T10:46:04;3.10;;;3.00;;
9392;SDS011;4736;52.508;13.422;2023-07-30T10:49:08;3.97;;;3.67;;
9392;SDS011;4736;52.508;13.422;2023-07-30T10:52:13;3.67;;;3.47;;
9392;SDS011;4736;52.508;13.422;2023-07-30T10:55:18;3.47;;;3.30;;
9392;SDS011;4736;52.508;13.422;2023-07-30T10:58:21;3.67;;;3.47;;
9392;SDS011;4736;52.508;13.422;2023-07-30T11:01:27;3.70;;;3.53;;
9392;SDS011;4736;52.508;13.422;2023-07-30T11:04:34;3.00;;;2.90;;
9392;SDS011;4736;52.508;13.422;2023-07-30T11:07:37;3.57;;;3.47;;
9392;SDS011;4736;52.508;13.422;2023-07-30T11:10:41;3.47;;;3.30;;
9392;SDS011;4736;52.508;13.422;2023-07-30T11:13:46;4.57;;;3.43;;
9392;SDS011;4736;52.508;13.422;2023-07-30T11:16:50;4.40;;;4.13;;
9392;SDS011;4736;52.508;13.422;2023-07-30T11:19:55;3.77;;;3.57;;
9392;SDS011;4736;52.508;13.422;2023-07-30T11:22:58;4.17;;;3.83;;
9392;SDS011;4736;52.508;13.422;2023-07-30T11:26:02;3.53;;;3.33;;
9392;SDS011;4736;52.508;13.422;2023-07-30T11:29:13;3.20;;;3.10;;
9392;SDS011;4736;52.508;13.422;2023-07-30T11:32:17;3.57;;;3.37;;
9392;SDS011;4736;52.508;13.422;2023-07-30T11:35:22;3.43;;;3.03;;
9392;SDS011;4736;52.508;13.422;2023-07-30T11:38:26;3.30;;;3.10;;
9392;SDS011;4736;52.508;13.422;2023-07-30T11:41:30;4.00;;;3.30;;
9392;SDS011;4736;52.508;13.422;2023-07-30T11:44:34;5.17;;;4.50;;
9392;SDS011;4736;52.508;13.422;2023-07-30T11:47:39;3.50;;;3.30;;
9392;SDS011;4736;52.508;13.422;2023-07-30T11:50:48;3.57;;;3.27;;
9392;SDS011;4736;52.508;13.422;2023-07-30T11:53:52;3.90;;;3.53;;
9392;SDS011;4736;52.508;13.422;2023-07-30T11:56:57;3.87;;;3.37;;
9392;SDS011;4736;52.508;13.422;2023-07-30T12:00:00;3.30;;;3.10;;
9392;SDS011;4736;52.508;13.422;2023-07-30T12:03:04;3.27;;;3.17;;
9392;SDS011;4736;52.508;13.422;2023-07-30T12:06:13;3.73;;;3.43;;
9392;SDS011;4736;52.508;13.422;2023-07-30T12:09:19;3.60;;;3.43;;
9392;SDS011;4736;52.508;13.422;2023-07-30T12:12:24;3.60;;;3.30;;
9392;SDS011;4736;52.508;13.422;2023-07-30T12:15:29;3.77;;;3.47;;
9392;SDS011;4736;52.508;13.422;2023-07-30T12:18:33;2.87;;;2.67;;
9392;SDS011;4736;52.508;13.422;2023-07-30T12:21:40;3.33;;;3.13;;
9392;SDS011;4736;52.508;13.422;2023-07-30T12:24:44;4.90;;;3.87;;
9392;SDS011;4736;52.508;13.422;2023-07-30T12:27:47;3.43;;;3.20;;
9392;SDS011;4736;52.508;13.422;2023-07-30T12:30:51;3.20;;;3.10;;
9392;SDS011;4736;52.508;13.422;2023-07-30T12:33:54;3.43;;;3.20;;
9392;SDS011;4736;52.508;13.422;2023-07-30T12:36:59;3.43;;;3.13;;
9392;SDS011;4736;52.508;13.422;2023-07-30T12:40:03;3.83;;;3.53;;
9392;SDS011;4736;52.508;13.422;2023-07-30T12:43:07;6.83;;;3.70;;
9392;SDS011;4736;52.508;13.422;2023-07-30T12:46:11;4.17;;;3.93;;
9392;SDS011;4736;52.508;13.422;2023-07-30T12:49:14;3.97;;;3.63;;
9392;SDS011;4736;52.508;13.422;2023-07-30T12:52:18;4.10;;;3.90;;
9392;SDS011;4736;52.508;13.422;2023-07-30T12:55:21;4.13;;;3.83;;
9392;SDS011;4736;52.508;13.422;2023-07-30T12:58:26;3.70;;;3.30;;
9392;SDS011;4736;52.508;13.422;2023-07-30T13:01:29;4.23;;;3.73;;
9392;SDS011;4736;52.508;13.422;2023-07-30T13:04:32;4.40;;;4.00;;
9392;SDS011;4736;52.508;13.422;2023-07-30T13:07:37;4.27;;;3.97;;
9392;SDS011;4736;52.508;13.422;2023-07-30T13:10:41;3.80;;;3.47;;
9392;SDS011;4736;52.508;13.422;2023-07-30T13:13:44;3.93;;;3.70;;
9392;SDS011;4736;52.508;13.422;2023-07-30T13:16:47;3.20;;;3.03;;
9392;SDS011;4736;52.508;13.422;2023-07-30T13:19:50;5.37;;;3.87;;
9392;SDS011;4736;52.508;13.422;2023-07-30T13:22:55;4.07;;;3.80;;
9392;SDS011;4736;52.508;13.422;2023-07-30T13:25:58;3.90;;;3.57;;
9392;SDS011;4736;52.508;13.422;2023-07-30T13:29:02;3.63;;;3.33;;
9392;SDS011;4736;52.508;13.422;2023-07-30T13:32:06;3.97;;;3.67;;
9392;SDS011;4736;52.508;13.422;2023-07-30T13:35:09;4.00;;;3.67;;
9392;SDS011;4736;52.508;13.422;2023-07-30T13:38:13;3.43;;;3.20;;
9392;SDS011;4736;52.508;13.422;2023-07-30T13:41:19;3.80;;;3.70;;
9392;SDS011;4736;52.508;13.422;2023-07-30T13:44:22;3.17;;;2.87;;
9392;SDS011;4736;52.508;13.422;2023-07-30T13:47:27;3.93;;;3.73;;
9392;SDS011;4736;52.508;13.422;2023-07-30T13:50:30;4.03;;;3.80;;
9392;SDS011;4736;52.508;13.422;2023-07-30T13:53:34;3.50;;;3.40;;
9392;SDS011;4736;52.508;13.422;2023-07-30T13:56:42;3.33;;;3.23;;
9392;SDS011;4736;52.508;13.422;2023-07-30T13:59:45;3.33;;;3.20;;
9392;SDS011;4736;52.508;13.422;2023-07-30T14:02:48;3.07;;;2.97;;
9392;SDS011;4736;52.508;13.422;2023-07-30T14:05:52;3.90;;;3.70;;
9392;SDS011;4736;52.508;13.422;2023-07-30T14:08:56;3.10;;;3.00;;
9392;SDS011;4736;52.508;13.422;2023-07-30T14:12:00;2.80;;;2.60;;
9392;SDS011;4736;52.508;13.422;2023-07-30T14:15:04;4.77;;;3.27;;
9392;SDS011;4736;52.508;13.422;2023-07-30T14:18:08;2.67;;;2.57;;
9392;SDS011;4736;52.508;13.422;2023-07-30T14:21:12;3.43;;;3.20;;
9392;SDS011;4736;52.508;13.422;2023-07-30T14:24:17;3.47;;;3.20;;
9392;SDS011;4736;52.508;13.422;2023-07-30T14:27:20;2.80;;;2.80;;
9392;SDS011;4736;52.508;13.422;2023-07-30T14:30:23;2.77;;;2.63;;
9392;SDS011;4736;52.508;13.422;2023-07-30T14:33:26;2.87;;;2.67;;
9392;SDS011;4736;52.508;13.422;2023-07-30T14:36:30;3.33;;;2.63;;
9392;SDS011;4736;52.508;13.422;2023-07-30T14:39:34;2.80;;;2.70;;
9392;SDS011;4736;52.508;13.422;2023-07-30T14:42:37;2.50;;;2.50;;
9392;SDS011;4736;52.508;13.422;2023-07-30T14:45:41;2.90;;;2.70;;
9392;SDS011;4736;52.508;13.422;2023-07-30T14:48:44;2.97;;;2.77;;
9392;SDS011;4736;52.508;13.422;2023-07-30T14:51:47;2.50;;;2.40;;
9392;SDS011;4736;52.508;13.422;2023-07-30T14:54:55;2.70;;;2.60;;
9392;SDS011;4736;52.508;13.422;2023-07-30T14:57:59;2.63;;;2.53;;
9392;SDS011;4736;52.508;13.422;2023-07-30T15:01:02;2.90;;;2.70;;
9392;SDS011;4736;52.508;13.422;2023-07-30T15:04:09;2.93;;;2.73;;
9392;SDS011;4736;52.508;13.422;2023-07-30T15:07:12;2.80;;;2.70;;
9392;SDS011;4736;52.508;13.422;2023-07-30T15:10:17;3.10;;;2.90;;
9392;SDS011;4736;52.508;13.422;2023-07-30T15:13:21;3.17;;;3.07;;
9392;SDS011;4736;52.508;13.422;2023-07-30T15:16:26;3.37;;;3.17;;
9392;SDS011;4736;52.508;13.422;2023-07-30T15:19:29;4.13;;;3.30;;
9392;SDS011;4736;52.508;13.422;2023-07-30T15:22:34;3.23;;;3.00;;
9392;SDS011;4736;52.508;13.422;2023-07-30T15:25:39;3.50;;;3.30;;
9392;SDS011;4736;52.508;13.422;2023-07-30T15:28:42;3.77;;;3.47;;
9392;SDS011;4736;52.508;13.422;2023-07-30T15:31:45;3.33;;;3.03;;
9392;SDS011;4736;52.508;13.422;2023-07-30T15:34:51;2.90;;;2.80;;
9392;SDS011;4736;52.508;13.422;2023-07-30T15:37:54;3.30;;;3.20;;
9392;SDS011;4736;52.508;13.422;2023-07-30T15:41:00;3.17;;;3.03;;
9392;SDS011;4736;52.508;13.422;2023-07-30T15:44:03;3.60;;;3.30;;
9392;SDS011;4736;52.508;13.422;2023-07-30T15:47:06;4.27;;;3.50;;
9392;SDS011;4736;52.508;13.422;2023-07-30T15:50:12;4.50;;;3.40;;
9392;SDS011;4736;52.508;13.422;2023-07-30T15:53:15;4.13;;;3.63;;
9392;SDS011;4736;52.508;13.422;2023-07-30T15:56:19;3.53;;;3.23;;
9392;SDS011;4736;52.508;13.422;2023-07-30T15:59:22;3.20;;;3.00;;
9392;SDS011;4736;52.508;13.422;2023-07-30T16:02:27;3.03;;;2.87;;
9392;SDS011;4736;52.508;13.422;2023-07-30T16:05:31;3.17;;;2.97;;
9392;SDS011;4736;52.508;13.422;2023-07-30T16:08:35;3.93;;;3.73;;
9392;SDS011;4736;52.508;13.422;2023-07-30T16:11:40;3.17;;;2.97;;
9392;SDS011;4736;52.508;13.422;2023-07-30T16:14:43;3.23;;;3.13;;
9392;SDS011;4736;52.508;13.422;2023-07-30T16:17:46;3.67;;;3.37;;
9392;SDS011;4736;52.508;13.422;2023-07-30T16:20:59;3.07;;;2.97;;
9392;SDS011;4736;52.508;13.422;2023-07-30T16:24:02;2.60;;;2.50;;
9392;SDS011;4736;52.508;13.422;2023-07-30T16:27:09;3.00;;;2.80;;
9392;SDS011;4736;52.508;13.422;2023-07-30T16:30:12;3.00;;;2.90;;
9392;SDS011;4736;52.508;13.422;2023-07-30T16:33:15;2.70;;;2.60;;
9392;SDS011;4736;52.508;13.422;2023-07-30T16:36:18;3.90;;;3.80;;
9392;SDS011;4736;52.508;13.422;2023-07-30T16:39:21;2.97;;;2.77;;
9392;SDS011;4736;52.508;13.422;2023-07-30T16:42:26;3.33;;;3.10;;
9392;SDS011;4736;52.508;13.422;2023-07-30T16:45:29;3.63;;;3.03;;
9392;SDS011;4736;52.508;13.422;2023-07-30T16:48:32;3.40;;;3.13;;
9392;SDS011;4736;52.508;13.422;2023-07-30T16:51:35;3.27;;;3.17;;
9392;SDS011;4736;52.508;13.422;2023-07-30T16:54:39;3.37;;;2.73;;
9392;SDS011;4736;52.508;13.422;2023-07-30T16:57:43;3.10;;;3.00;;
9392;SDS011;4736;52.508;13.422;2023-07-30T17:00:46;3.03;;;2.90;;
9392;SDS011;4736;52.508;13.422;2023-07-30T17:03:49;2.87;;;2.80;;
9392;SDS011;4736;52.508;13.422;2023-07-30T17:06:52;3.07;;;2.63;;
9392;SDS011;4736;52.508;13.422;2023-07-30T17:09:57;3.30;;;3.10;;
9392;SDS011;4736;52.508;13.422;2023-07-30T17:13:02;3.83;;;3.07;;
9392;SDS011;4736;52.508;13.422;2023-07-30T17:16:06;3.00;;;2.90;;
9392;SDS011;4736;52.508;13.422;2023-07-30T17:19:10;3.50;;;3.30;;
9392;SDS011;4736;52.508;13.422;2023-07-30T17:22:13;2.97;;;2.87;;
9392;SDS011;4736;52.508;13.422;2023-07-30T17:25:16;3.60;;;3.40;;
9392;SDS011;4736;52.508;13.422;2023-07-30T17:28:21;3.37;;;3.03;;
9392;SDS011;4736;52.508;13.422;2023-07-30T17:31:25;4.03;;;3.00;;
9392;SDS011;4736;52.508;13.422;2023-07-30T17:34:28;3.30;;;3.10;;
9392;SDS011;4736;52.508;13.422;2023-07-30T17:37:31;3.40;;;3.17;;
9392;SDS011;4736;52.508;13.422;2023-07-30T17:40:34;3.70;;;3.23;;
9392;SDS011;4736;52.508;13.422;2023-07-30T17:43:40;3.53;;;3.23;;
9392;SDS011;4736;52.508;13.422;2023-07-30T17:46:43;3.70;;;3.60;;
9392;SDS011;4736;52.508;13.422;2023-07-30T17:49:46;3.90;;;3.50;;
9392;SDS011;4736;52.508;13.422;2023-07-30T17:52:50;3.57;;;3.37;;
9392;SDS011;4736;52.508;13.422;2023-07-30T17:55:53;3.63;;;3.53;;
9392;SDS011;4736;52.508;13.422;2023-07-30T17:58:59;3.53;;;3.30;;
9392;SDS011;4736;52.508;13.422;2023-07-30T18:02:03;3.77;;;3.50;;
9392;SDS011;4736;52.508;13.422;2023-07-30T18:05:06;3.67;;;3.57;;
9392;SDS011;4736;52.508;13.422;2023-07-30T18:08:18;3.40;;;3.20;;
9392;SDS011;4736;52.508;13.422;2023-07-30T18:11:21;3.77;;;3.47;;
9392;SDS011;4736;52.508;13.422;2023-07-30T18:14:25;4.00;;;3.70;;
9392;SDS011;4736;52.508;13.422;2023-07-30T18:17:30;3.87;;;3.47;;
9392;SDS011;4736;52.508;13.422;2023-07-30T18:20:33;6.97;;;3.90;;
9392;SDS011;4736;52.508;13.422;2023-07-30T18:23:36;3.90;;;3.47;;
9392;SDS011;4736;52.508;13.422;2023-07-30T18:26:41;4.03;;;3.43;;
9392;SDS011;4736;52.508;13.422;2023-07-30T18:29:45;3.43;;;3.27;;
9392;SDS011;4736;52.508;13.422;2023-07-30T18:32:48;4.10;;;3.80;;
9392;SDS011;4736;52.508;13.422;2023-07-30T18:35:55;4.07;;;3.70;;
9392;SDS011;4736;52.508;13.422;2023-07-30T18:38:59;3.60;;;3.50;;
9392;SDS011;4736;52.508;13.422;2023-07-30T18:42:03;3.67;;;3.37;;
9392;SDS011;4736;52.508;13.422;2023-07-30T18:45:08;4.00;;;3.70;;